createdAt,value
2019-02-18T00:00:25.227Z,1.50
2019-02-18T00:01:56.515Z,1.50
2019-02-18T00:03:28.108Z,1.50
2019-02-18T00:04:59.570Z,1.49
2019-02-18T00:06:31.404Z,1.48
2019-02-18T00:08:03.278Z,1.48
2019-02-18T00:09:35.194Z,1.48
2019-02-18T00:11:06.577Z,1.44
2019-02-18T00:12:38.210Z,1.38
2019-02-18T00:14:09.513Z,1.54
2019-02-18T00:15:40.824Z,1.54
2019-02-18T00:17:12.177Z,1.53
2019-02-18T00:18:43.974Z,1.56
2019-02-18T00:20:15.282Z,1.54
2019-02-18T00:21:46.865Z,1.46
2019-02-18T00:23:18.186Z,1.49
2019-02-18T00:24:49.483Z,1.51
2019-02-18T00:26:20.790Z,1.55
2019-02-18T00:27:52.646Z,1.50
2019-02-18T00:29:24.050Z,1.44
2019-02-18T00:30:55.886Z,1.42
2019-02-18T00:32:27.174Z,0.92
2019-02-18T00:33:58.843Z,1.42
2019-02-18T00:35:30.187Z,1.43
2019-02-18T00:37:01.676Z,1.42
2019-02-18T00:38:32.999Z,1.40
2019-02-18T00:40:04.874Z,1.36
2019-02-18T00:41:36.779Z,1.33
2019-02-18T00:43:08.631Z,1.31
2019-02-18T00:44:41.102Z,1.32
2019-02-18T00:46:12.417Z,1.30
2019-02-18T00:47:43.735Z,1.28
2019-02-18T00:49:15.825Z,1.29
2019-02-18T00:50:47.160Z,1.28
2019-02-18T00:52:18.894Z,1.27
2019-02-18T00:53:50.210Z,1.27
2019-02-18T00:55:21.498Z,1.26
2019-02-18T00:56:52.825Z,1.24
2019-02-18T00:58:24.371Z,1.22
2019-02-18T00:59:55.691Z,1.20
2019-02-18T01:01:27.001Z,1.19
2019-02-18T01:02:58.351Z,1.16
2019-02-18T01:04:30.147Z,1.13
2019-02-18T01:06:01.455Z,1.11
2019-02-18T01:07:35.133Z,1.07
2019-02-18T01:09:06.261Z,1.07
2019-02-18T01:10:37.551Z,1.07
2019-02-18T01:12:09.459Z,1.09
2019-02-18T01:13:41.237Z,1.09
2019-02-18T01:15:12.575Z,1.10
2019-02-18T01:16:43.935Z,1.10
2019-02-18T01:18:15.232Z,1.11
2019-02-18T01:19:46.978Z,1.11
2019-02-18T01:21:18.320Z,1.11
2019-02-18T01:22:50.145Z,1.09
2019-02-18T01:24:21.434Z,1.10
2019-02-18T01:25:52.741Z,1.11
2019-02-18T01:27:24.061Z,1.07
2019-02-18T01:28:55.713Z,1.05
2019-02-18T01:30:27.025Z,1.04
2019-02-18T01:31:58.325Z,1.04
2019-02-18T01:33:29.723Z,1.04
2019-02-18T01:35:01.717Z,1.03
2019-02-18T01:36:33.097Z,1.01
2019-02-18T01:38:04.881Z,0.99
2019-02-18T01:39:36.166Z,0.98
2019-02-18T01:41:07.514Z,0.98
2019-02-18T01:42:38.830Z,0.97
2019-02-18T01:44:10.662Z,0.93
2019-02-18T01:45:41.967Z,0.92
2019-02-18T01:47:13.311Z,0.90
2019-02-18T01:48:44.597Z,0.90
2019-02-18T01:50:16.127Z,0.90
2019-02-18T01:51:47.425Z,0.94
2019-02-18T01:53:19.011Z,1.01
2019-02-18T01:54:50.342Z,1.09
2019-02-18T01:56:21.667Z,1.06
2019-02-18T01:57:52.943Z,1.03
2019-02-18T01:59:24.591Z,0.98
2019-02-18T02:00:55.905Z,0.95
2019-02-18T02:02:27.269Z,0.91
2019-02-18T02:03:58.538Z,0.84
2019-02-18T02:05:30.166Z,0.76
2019-02-18T02:07:01.489Z,0.69
2019-02-18T02:08:33.260Z,0.70
2019-02-18T02:10:04.538Z,0.77
2019-02-18T02:11:35.851Z,0.79
2019-02-18T02:13:07.162Z,0.78
2019-02-18T02:14:39.032Z,0.74
2019-02-18T02:16:10.336Z,0.72
2019-02-18T02:17:41.645Z,0.66
2019-02-18T02:19:12.992Z,0.61
2019-02-18T02:20:44.504Z,0.56
2019-02-18T02:22:15.825Z,0.53
2019-02-18T02:23:47.486Z,0.51
2019-02-18T02:25:18.811Z,0.51
2019-02-18T02:26:50.131Z,0.50
2019-02-18T02:28:21.460Z,0.49
2019-02-18T02:29:53.079Z,0.51
2019-02-18T02:31:24.426Z,0.50
2019-02-18T02:32:55.713Z,0.53
2019-02-18T02:34:27.053Z,0.54
2019-02-18T02:35:58.612Z,0.55
2019-02-18T02:37:29.887Z,0.58
2019-02-18T02:39:01.512Z,0.58
2019-02-18T02:40:33.443Z,0.58
2019-02-18T02:42:04.746Z,0.57
2019-02-18T02:43:36.065Z,0.54
2019-02-18T02:45:08.520Z,0.52
2019-02-18T02:46:39.881Z,0.49
2019-02-18T02:48:11.163Z,0.47
2019-02-18T02:49:43.062Z,0.46
2019-02-18T02:51:15.310Z,0.41
2019-02-18T02:52:46.746Z,0.35
2019-02-18T02:54:18.502Z,0.31
2019-02-18T02:55:50.394Z,0.27
2019-02-18T02:57:21.744Z,0.21
2019-02-18T02:58:53.055Z,0.18
2019-02-18T03:00:25.234Z,0.15
2019-02-18T03:01:56.516Z,0.12
2019-02-18T03:03:28.469Z,0.13
2019-02-18T03:05:00.504Z,0.14
2019-02-18T03:06:32.989Z,0.18
2019-02-18T03:08:04.895Z,0.21
2019-02-18T03:09:36.795Z,0.21
2019-02-18T03:11:08.679Z,0.24
2019-02-18T03:12:41.061Z,0.24
2019-02-18T03:14:12.459Z,0.23
2019-02-18T03:15:43.739Z,0.24
2019-02-18T03:17:15.041Z,0.24
2019-02-18T03:18:46.622Z,0.27
2019-02-18T03:20:18.607Z,0.24
2019-02-18T03:21:50.485Z,0.22
2019-02-18T03:23:22.392Z,0.19
2019-02-18T03:24:54.535Z,0.17
2019-02-18T03:26:25.849Z,0.16
2019-02-18T03:27:57.147Z,0.15
2019-02-18T03:29:28.498Z,0.13
2019-02-18T03:31:00.118Z,0.11
2019-02-18T03:32:31.413Z,0.10
2019-02-18T03:34:02.742Z,0.09
2019-02-18T03:35:34.102Z,0.10
2019-02-18T03:37:05.591Z,-0.05
2019-02-18T03:38:36.894Z,-0.07
2019-02-18T03:40:08.208Z,-0.15
2019-02-18T03:41:41.006Z,-0.15
2019-02-18T03:43:12.926Z,-0.13
2019-02-18T03:44:44.217Z,-0.11
2019-02-18T03:46:15.515Z,-0.15
2019-02-18T03:47:46.856Z,-0.28
2019-02-18T03:49:18.354Z,-0.40
2019-02-18T03:50:49.641Z,-0.42
2019-02-18T03:52:20.946Z,-0.41
2019-02-18T03:53:52.319Z,-0.40
2019-02-18T03:55:23.756Z,-0.43
2019-02-18T03:56:55.022Z,-0.44
2019-02-18T03:58:26.331Z,-0.40
2019-02-18T03:59:57.700Z,-0.35
2019-02-18T04:01:29.232Z,-0.26
2019-02-18T04:03:00.585Z,-0.26
2019-02-18T04:04:31.876Z,-0.27
2019-02-18T04:06:03.170Z,-0.27
2019-02-18T04:07:34.763Z,-0.26
2019-02-18T04:09:06.136Z,-0.23
2019-02-18T04:10:37.421Z,-0.19
2019-02-18T04:12:08.710Z,-0.16
2019-02-18T04:13:40.329Z,-0.15
2019-02-18T04:15:11.648Z,-0.18
2019-02-18T04:16:43.536Z,-0.16
2019-02-18T04:18:15.400Z,-0.12
2019-02-18T04:19:47.439Z,-0.10
2019-02-18T04:21:19.299Z,-0.09
2019-02-18T04:22:51.217Z,-0.06
2019-02-18T04:24:22.590Z,-0.10
2019-02-18T04:25:54.754Z,-0.11
2019-02-18T04:27:26.034Z,-0.12
2019-02-18T04:28:57.935Z,-0.13
2019-02-18T04:30:29.247Z,-0.13
2019-02-18T04:32:00.722Z,-0.15
2019-02-18T04:33:32.008Z,-0.17
2019-02-18T04:35:03.304Z,-0.16
2019-02-18T04:36:34.592Z,-0.16
2019-02-18T04:38:06.127Z,-0.18
2019-02-18T04:39:37.415Z,-0.17
2019-02-18T04:41:09.686Z,-0.18
2019-02-18T04:42:41.060Z,-0.19
2019-02-18T04:44:12.348Z,-0.17
2019-02-18T04:45:43.655Z,-0.18
2019-02-18T04:47:15.408Z,-0.19
2019-02-18T04:48:46.774Z,-0.20
2019-02-18T04:50:18.053Z,-0.12
2019-02-18T04:51:49.354Z,-0.14
2019-02-18T04:53:21.146Z,-0.17
2019-02-18T04:54:52.445Z,-0.20
2019-02-18T04:56:24.146Z,-0.21
2019-02-18T04:57:55.454Z,-0.25
2019-02-18T04:59:26.823Z,-0.25
2019-02-18T05:00:58.145Z,-0.27
2019-02-18T05:02:29.933Z,-0.28
2019-02-18T05:04:01.219Z,-0.31
2019-02-18T05:05:32.652Z,-0.32
2019-02-18T05:07:03.912Z,-0.32
2019-02-18T05:08:35.690Z,-0.31
2019-02-18T05:10:07.015Z,-0.35
2019-02-18T05:11:38.507Z,-0.41
2019-02-18T05:13:09.814Z,-0.46
2019-02-18T05:14:41.103Z,-0.52
2019-02-18T05:16:13.026Z,-0.56
2019-02-18T05:17:44.859Z,-0.55
2019-02-18T05:19:16.153Z,-0.59
2019-02-18T05:20:47.460Z,-0.63
2019-02-18T05:22:18.825Z,-0.60
2019-02-18T05:23:50.430Z,-0.55
2019-02-18T05:25:21.726Z,-0.57
2019-02-18T05:26:53.147Z,-0.55
2019-02-18T05:28:24.493Z,-0.57
2019-02-18T05:29:55.803Z,-0.55
2019-02-18T05:31:27.092Z,-0.53
2019-02-18T05:32:58.589Z,-0.52
2019-02-18T05:34:29.943Z,-0.52
2019-02-18T05:36:01.227Z,-0.54
2019-02-18T05:37:32.534Z,-0.52
2019-02-18T05:39:04.173Z,-0.52
2019-02-18T05:40:35.457Z,-0.48
2019-02-18T05:42:07.151Z,-0.45
2019-02-18T05:43:38.467Z,-0.45
2019-02-18T05:45:10.992Z,-0.42
2019-02-18T05:46:42.378Z,-0.41
2019-02-18T05:48:14.042Z,-0.40
2019-02-18T05:49:45.377Z,-0.34
2019-02-18T05:51:16.655Z,-0.33
2019-02-18T05:52:47.973Z,-0.29
2019-02-18T05:54:19.607Z,-0.24
2019-02-18T05:55:50.924Z,-0.21
2019-02-18T05:57:22.885Z,-0.18
2019-02-18T05:58:54.433Z,-0.19
2019-02-18T06:00:26.122Z,-0.19
2019-02-18T06:01:57.406Z,-0.16
2019-02-18T06:03:28.705Z,-0.14
2019-02-18T06:04:59.992Z,-0.11
2019-02-18T06:06:31.781Z,-0.06
2019-02-18T06:08:03.097Z,-0.02
2019-02-18T06:09:34.380Z,0.03
2019-02-18T06:11:05.697Z,0.04
2019-02-18T06:12:37.331Z,0.06
2019-02-18T06:14:09.223Z,0.07
2019-02-18T06:15:40.543Z,0.08
2019-02-18T06:17:11.827Z,0.17
2019-02-18T06:18:43.383Z,0.24
2019-02-18T06:20:14.637Z,0.26
2019-02-18T06:21:45.959Z,0.26
2019-02-18T06:23:17.277Z,0.28
2019-02-18T06:24:48.896Z,0.31
2019-02-18T06:26:20.246Z,0.31
2019-02-18T06:27:51.887Z,0.32
2019-02-18T06:29:23.205Z,0.36
2019-02-18T06:30:55.119Z,0.38
2019-02-18T06:32:27.016Z,0.43
2019-02-18T06:33:59.075Z,0.43
2019-02-18T06:35:30.376Z,0.46
2019-02-18T06:37:01.754Z,0.51
2019-02-18T06:38:33.050Z,0.57
2019-02-18T06:40:04.651Z,0.62
2019-02-18T06:41:36.002Z,0.62
2019-02-18T06:43:07.550Z,0.68
2019-02-18T06:44:39.427Z,0.73
2019-02-18T06:46:10.746Z,0.80
2019-02-18T06:47:42.031Z,0.87
2019-02-18T06:49:13.629Z,0.97
2019-02-18T06:50:44.933Z,1.03
2019-02-18T06:52:16.237Z,1.11
2019-02-18T06:53:47.528Z,1.20
2019-02-18T06:55:18.970Z,1.31
2019-02-18T06:56:50.859Z,1.45
2019-02-18T06:58:22.919Z,1.58
2019-02-18T06:59:54.269Z,1.67
2019-02-18T07:01:25.611Z,1.58
2019-02-18T07:02:56.932Z,1.58
2019-02-18T07:04:28.578Z,1.43
2019-02-18T07:05:59.947Z,1.45
2019-02-18T07:07:31.243Z,1.60
2019-02-18T07:09:02.532Z,1.79
2019-02-18T07:10:34.037Z,1.95
2019-02-18T07:12:05.974Z,2.15
2019-02-18T07:13:37.538Z,2.32
2019-02-18T07:15:09.442Z,2.46
2019-02-18T07:16:40.763Z,2.59
2019-02-18T07:18:12.071Z,2.72
2019-02-18T07:19:43.834Z,2.81
2019-02-18T07:21:15.753Z,2.89
2019-02-18T07:22:47.643Z,3.03
2019-02-18T07:24:19.560Z,3.10
2019-02-18T07:25:51.679Z,3.19
2019-02-18T07:27:23.530Z,3.28
2019-02-18T07:28:55.151Z,3.18
2019-02-18T07:30:27.086Z,3.26
2019-02-18T07:31:58.407Z,3.36
2019-02-18T07:33:30.330Z,3.46
2019-02-18T07:35:02.162Z,3.44
2019-02-18T07:36:35.104Z,3.51
2019-02-18T07:38:06.997Z,3.54
2019-02-18T07:39:38.960Z,3.59
2019-02-18T07:41:10.810Z,3.77
2019-02-18T07:42:42.692Z,3.97
2019-02-18T07:44:14.818Z,4.10
2019-02-18T07:45:46.774Z,4.30
2019-02-18T07:47:18.671Z,4.46
2019-02-18T07:48:50.549Z,4.44
2019-02-18T07:50:22.948Z,4.51
2019-02-18T07:51:54.892Z,4.58
2019-02-18T07:53:26.767Z,4.71
2019-02-18T07:54:58.645Z,4.90
2019-02-18T07:56:30.967Z,5.15
2019-02-18T07:58:02.863Z,5.39
2019-02-18T07:59:35.283Z,5.62
2019-02-18T08:01:07.173Z,5.85
2019-02-18T08:02:39.130Z,6.02
2019-02-18T08:04:11.006Z,6.19
2019-02-18T08:05:42.589Z,6.32
2019-02-18T08:07:13.897Z,6.25
2019-02-18T08:08:45.849Z,6.12
2019-02-18T08:10:17.729Z,5.80
2019-02-18T08:11:50.220Z,5.61
2019-02-18T08:13:22.096Z,5.44
2019-02-18T08:14:54.450Z,5.48
2019-02-18T08:16:26.349Z,5.83
2019-02-18T08:17:58.248Z,6.13
2019-02-18T08:19:30.120Z,6.33
2019-02-18T08:21:02.563Z,6.52
2019-02-18T08:22:34.452Z,6.73
2019-02-18T08:24:06.353Z,6.92
2019-02-18T08:25:38.316Z,7.02
2019-02-18T08:27:10.486Z,7.19
2019-02-18T08:28:42.388Z,7.29
2019-02-18T08:30:14.498Z,7.37
2019-02-18T08:31:46.462Z,7.51
2019-02-18T08:33:18.345Z,7.63
2019-02-18T08:34:52.542Z,7.84
2019-02-18T08:36:24.599Z,7.99
2019-02-18T08:37:56.506Z,7.99
2019-02-18T08:39:28.425Z,7.82
2019-02-18T08:41:00.298Z,7.83
2019-02-18T08:42:34.188Z,7.83
2019-02-18T08:44:06.375Z,7.90
2019-02-18T08:45:38.582Z,8.15
2019-02-18T08:47:10.459Z,8.40
2019-02-18T08:48:42.338Z,8.53
2019-02-18T08:50:14.284Z,8.58
2019-02-18T08:51:46.500Z,8.71
2019-02-18T08:53:18.398Z,8.82
2019-02-18T08:54:56.604Z,8.97
2019-02-18T08:56:23.882Z,9.12
2019-02-18T08:57:56.254Z,9.13
2019-02-18T08:59:27.565Z,9.19
2019-02-18T09:01:02.491Z,9.25
2019-02-18T09:02:33.341Z,9.33
2019-02-18T09:04:05.242Z,9.39
2019-02-18T09:05:37.108Z,9.44
2019-02-18T09:07:09.334Z,9.52
2019-02-18T09:08:41.215Z,9.58
2019-02-18T09:10:13.074Z,9.61
2019-02-18T09:11:44.995Z,9.57
2019-02-18T09:13:17.180Z,9.49
2019-02-18T09:14:49.063Z,9.42
2019-02-18T09:16:21.095Z,9.39
2019-02-18T09:17:53.025Z,9.48
2019-02-18T09:19:24.913Z,9.49
2019-02-18T09:20:56.801Z,9.50
2019-02-18T09:22:28.998Z,9.46
2019-02-18T09:24:00.915Z,9.45
2019-02-18T09:25:32.782Z,9.42
2019-02-18T09:27:04.684Z,9.50
2019-02-18T09:28:36.926Z,9.53
2019-02-18T09:30:08.861Z,9.53
2019-02-18T09:31:42.892Z,9.54
2019-02-18T09:33:14.818Z,9.57
2019-02-18T09:34:46.754Z,9.59
2019-02-18T09:36:21.181Z,9.64
2019-02-18T09:37:52.457Z,9.68
2019-02-18T09:39:31.110Z,9.69
2019-02-18T09:40:57.904Z,9.67
2019-02-18T09:42:29.797Z,9.66
2019-02-18T09:44:01.959Z,9.67
2019-02-18T09:45:33.836Z,9.67
2019-02-18T09:47:05.861Z,9.68
2019-02-18T09:48:37.758Z,9.66
2019-02-18T09:50:09.681Z,9.58
2019-02-18T09:51:41.696Z,9.57
2019-02-18T09:53:13.865Z,9.54
2019-02-18T09:54:45.739Z,9.47
2019-02-18T09:56:17.622Z,9.30
2019-02-18T09:57:49.523Z,9.51
2019-02-18T09:59:21.597Z,9.56
2019-02-18T10:00:53.476Z,9.56
2019-02-18T10:02:25.585Z,9.63
2019-02-18T10:03:57.506Z,9.67
2019-02-18T10:05:29.737Z,9.72
2019-02-18T10:07:01.646Z,9.74
2019-02-18T10:08:34.118Z,9.74
2019-02-18T10:10:06.011Z,9.76
2019-02-18T10:11:37.902Z,9.79
2019-02-18T10:13:09.821Z,9.78
2019-02-18T10:14:41.952Z,9.78
2019-02-18T10:16:13.863Z,9.82
2019-02-18T10:17:46.059Z,9.86
2019-02-18T10:19:17.922Z,9.90
2019-02-18T10:20:49.799Z,9.93
2019-02-18T10:22:21.738Z,9.96
2019-02-18T10:23:53.816Z,10.03
2019-02-18T10:25:25.734Z,10.07
2019-02-18T10:26:57.637Z,10.11
2019-02-18T10:28:29.529Z,10.11
2019-02-18T10:30:01.692Z,10.16
2019-02-18T10:31:33.600Z,10.21
2019-02-18T10:33:05.742Z,10.23
2019-02-18T10:34:37.579Z,10.27
2019-02-18T10:36:09.469Z,10.31
2019-02-18T10:37:41.413Z,10.38
2019-02-18T10:39:13.632Z,10.45
2019-02-18T10:40:45.533Z,10.51
2019-02-18T10:42:17.430Z,10.61
2019-02-18T10:43:49.351Z,10.66
2019-02-18T10:45:21.557Z,10.70
2019-02-18T10:46:53.467Z,10.71
2019-02-18T10:48:25.717Z,10.77
2019-02-18T10:49:57.597Z,10.84
2019-02-18T10:51:29.474Z,10.90
2019-02-18T10:53:01.455Z,10.95
2019-02-18T10:54:33.603Z,10.96
2019-02-18T10:56:05.545Z,11.00
2019-02-18T10:57:37.462Z,11.07
2019-02-18T10:59:09.362Z,11.10
2019-02-18T11:00:41.532Z,11.16
2019-02-18T11:02:13.488Z,11.22
2019-02-18T11:03:45.760Z,11.26
2019-02-18T11:05:17.630Z,11.35
2019-02-18T11:06:49.528Z,11.34
2019-02-18T11:08:21.486Z,11.34
2019-02-18T11:09:53.768Z,11.36
2019-02-18T11:11:25.655Z,11.43
2019-02-18T11:12:57.529Z,11.50
2019-02-18T11:14:30.133Z,11.56
2019-02-18T11:16:02.323Z,11.64
2019-02-18T11:17:38.981Z,11.74
2019-02-18T11:19:08.082Z,11.82
2019-02-18T11:20:39.989Z,11.87
2019-02-18T11:22:11.853Z,11.92
2019-02-18T11:23:43.802Z,11.99
2019-02-18T11:25:15.898Z,11.98
2019-02-18T11:26:47.808Z,11.97
2019-02-18T11:28:19.731Z,12.04
2019-02-18T11:29:51.633Z,12.08
2019-02-18T11:31:23.927Z,12.11
2019-02-18T11:32:55.826Z,12.12
2019-02-18T11:34:28.055Z,12.12
2019-02-18T11:35:59.958Z,12.16
2019-02-18T11:37:31.831Z,12.18
2019-02-18T11:39:03.786Z,12.20
2019-02-18T11:40:35.987Z,12.21
2019-02-18T11:42:07.959Z,12.25
2019-02-18T11:43:39.842Z,12.28
2019-02-18T11:45:11.755Z,12.29
2019-02-18T11:46:43.844Z,12.32
2019-02-18T11:48:15.717Z,12.35
2019-02-18T11:49:48.009Z,12.49
2019-02-18T11:51:19.934Z,12.50
2019-02-18T11:52:51.816Z,12.53
2019-02-18T11:54:23.697Z,12.53
2019-02-18T11:55:55.787Z,12.57
2019-02-18T11:57:27.693Z,12.63
2019-02-18T11:58:59.622Z,12.66
2019-02-18T12:00:31.521Z,12.66
2019-02-18T12:02:03.750Z,12.67
2019-02-18T12:03:36.060Z,12.69
2019-02-18T12:05:08.304Z,12.76
2019-02-18T12:06:40.222Z,12.79
2019-02-18T12:08:12.137Z,12.84
2019-02-18T12:09:44.015Z,12.93
2019-02-18T12:11:16.212Z,12.95
2019-02-18T12:12:48.118Z,12.98
2019-02-18T12:14:20.011Z,12.98
2019-02-18T12:15:51.945Z,13.04
2019-02-18T12:17:24.133Z,13.07
2019-02-18T12:18:56.012Z,13.14
2019-02-18T12:20:28.152Z,13.23
2019-02-18T12:22:00.089Z,13.32
2019-02-18T12:23:32.041Z,13.38
2019-02-18T12:25:03.937Z,13.48
2019-02-18T12:26:36.179Z,13.50
2019-02-18T12:28:08.059Z,13.58
2019-02-18T12:29:39.951Z,13.57
2019-02-18T12:31:11.833Z,13.56
2019-02-18T12:32:44.083Z,13.63
2019-02-18T12:34:16.000Z,13.66
2019-02-18T12:35:48.218Z,13.69
2019-02-18T12:37:20.086Z,13.69
2019-02-18T12:38:51.973Z,13.66
2019-02-18T12:40:23.876Z,13.59
2019-02-18T12:41:56.031Z,13.68
2019-02-18T12:43:29.392Z,13.78
2019-02-18T12:45:01.669Z,13.77
2019-02-18T12:46:33.536Z,13.90
2019-02-18T12:48:05.846Z,14.04
2019-02-18T12:49:38.168Z,14.11
2019-02-18T12:51:10.431Z,14.08
2019-02-18T12:52:42.311Z,14.04
2019-02-18T12:54:14.199Z,13.99
2019-02-18T12:55:46.125Z,14.05
2019-02-18T12:57:18.361Z,13.97
2019-02-18T12:58:54.663Z,14.01
2019-02-18T13:00:23.809Z,14.04
2019-02-18T13:01:55.674Z,13.97
2019-02-18T13:03:27.816Z,14.07
2019-02-18T13:05:00.841Z,14.11
2019-02-18T13:06:33.066Z,14.31
2019-02-18T13:08:04.936Z,14.46
2019-02-18T13:09:36.848Z,14.54
2019-02-18T13:11:08.752Z,14.48
2019-02-18T13:12:40.884Z,14.51
2019-02-18T13:14:12.769Z,14.59
2019-02-18T13:15:44.647Z,14.51
2019-02-18T13:17:16.590Z,14.49
2019-02-18T13:18:48.870Z,14.61
2019-02-18T13:20:20.763Z,14.60
2019-02-18T13:21:53.027Z,14.60
2019-02-18T13:23:25.335Z,14.63
2019-02-18T13:24:57.223Z,14.61
2019-02-18T13:26:29.155Z,14.68
2019-02-18T13:28:08.307Z,14.68
2019-02-18T13:29:34.925Z,14.81
2019-02-18T13:31:06.820Z,14.85
2019-02-18T13:32:38.956Z,14.88
2019-02-18T13:34:11.312Z,14.73
2019-02-18T13:35:43.257Z,14.67
2019-02-18T13:37:15.554Z,14.67
2019-02-18T13:38:47.473Z,14.73
2019-02-18T13:40:19.368Z,14.76
2019-02-18T13:41:51.556Z,14.74
2019-02-18T13:43:23.896Z,14.78
2019-02-18T13:44:55.754Z,14.79
2019-02-18T13:46:28.067Z,14.82
2019-02-18T13:47:59.967Z,14.83
2019-02-18T13:49:32.233Z,14.84
2019-02-18T13:51:04.120Z,14.81
2019-02-18T13:52:36.562Z,14.89
2019-02-18T13:54:08.433Z,14.93
2019-02-18T13:55:40.382Z,14.96
2019-02-18T13:57:12.262Z,14.98
2019-02-18T13:58:44.278Z,14.98
2019-02-18T14:00:16.201Z,14.95
2019-02-18T14:01:48.091Z,14.90
2019-02-18T14:03:20.026Z,14.92
2019-02-18T14:04:52.179Z,14.95
2019-02-18T14:06:24.128Z,14.91
2019-02-18T14:07:56.414Z,14.92
2019-02-18T14:09:28.301Z,14.95
2019-02-18T14:11:00.185Z,14.93
2019-02-18T14:12:32.124Z,14.89
2019-02-18T14:14:04.343Z,14.91
2019-02-18T14:15:36.239Z,14.93
2019-02-18T14:17:08.139Z,14.90
2019-02-18T14:18:40.070Z,14.87
2019-02-18T14:20:13.985Z,14.80
2019-02-18T14:21:45.775Z,14.81
2019-02-18T14:23:18.013Z,14.83
2019-02-18T14:24:49.896Z,14.83
2019-02-18T14:26:21.773Z,14.79
2019-02-18T14:27:53.641Z,14.76
2019-02-18T14:29:25.834Z,14.66
2019-02-18T14:30:57.702Z,14.66
2019-02-18T14:32:29.616Z,14.67
2019-02-18T14:34:01.488Z,14.68
2019-02-18T14:35:33.958Z,14.63
2019-02-18T14:37:05.853Z,14.64
2019-02-18T14:38:38.076Z,14.62
2019-02-18T14:40:09.951Z,14.59
2019-02-18T14:41:41.890Z,14.56
2019-02-18T14:43:13.803Z,14.57
2019-02-18T14:44:45.999Z,14.53
2019-02-18T14:46:17.910Z,14.50
2019-02-18T14:47:49.854Z,14.45
2019-02-18T14:49:21.746Z,14.45
2019-02-18T14:50:56.715Z,14.43
2019-02-18T14:52:27.361Z,14.48
2019-02-18T14:53:59.609Z,14.46
2019-02-18T14:55:31.491Z,14.44
2019-02-18T14:57:03.382Z,14.42
2019-02-18T14:58:35.252Z,14.38
2019-02-18T15:00:07.510Z,14.39
2019-02-18T15:01:39.378Z,14.32
2019-02-18T15:03:11.304Z,14.29
2019-02-18T15:04:43.171Z,14.26
2019-02-18T15:06:20.669Z,14.26
2019-02-18T15:07:52.845Z,14.22
2019-02-18T15:09:25.087Z,14.16
2019-02-18T15:10:56.986Z,14.14
2019-02-18T15:12:33.041Z,14.12
2019-02-18T15:14:02.972Z,14.08
2019-02-18T15:15:35.031Z,14.05
2019-02-18T15:17:07.317Z,13.99
2019-02-18T15:18:39.247Z,13.94
2019-02-18T15:20:11.660Z,13.90
2019-02-18T15:21:45.101Z,13.85
2019-02-18T15:23:17.009Z,13.81
2019-02-18T15:24:49.052Z,13.75
2019-02-18T15:26:20.934Z,13.69
2019-02-18T15:27:52.858Z,13.61
2019-02-18T15:29:24.808Z,13.59
2019-02-18T15:30:56.967Z,13.58
2019-02-18T15:32:28.822Z,13.52
2019-02-18T15:34:00.730Z,13.49
2019-02-18T15:35:33.150Z,13.44
2019-02-18T15:37:05.140Z,13.37
2019-02-18T15:38:37.083Z,13.32
2019-02-18T15:40:09.291Z,13.25
2019-02-18T15:41:41.206Z,13.18
2019-02-18T15:43:16.205Z,13.11
2019-02-18T15:44:48.149Z,13.07
2019-02-18T15:46:20.067Z,13.01
2019-02-18T15:47:52.005Z,12.97
2019-02-18T15:49:24.434Z,12.94
2019-02-18T15:50:56.343Z,12.89
2019-02-18T15:52:28.258Z,12.84
2019-02-18T15:54:00.171Z,12.82
2019-02-18T15:55:32.443Z,12.80
2019-02-18T15:57:04.346Z,12.77
2019-02-18T15:58:36.398Z,12.74
2019-02-18T16:00:08.356Z,12.69
2019-02-18T16:01:40.370Z,12.64
2019-02-18T16:03:12.338Z,12.57
2019-02-18T16:04:44.248Z,12.50
2019-02-18T16:06:16.202Z,12.43
2019-02-18T16:07:48.199Z,12.36
2019-02-18T16:09:20.406Z,12.33
2019-02-18T16:10:52.331Z,12.23
2019-02-18T16:12:24.207Z,12.16
2019-02-18T16:13:56.428Z,12.07
2019-02-18T16:15:29.349Z,12.00
2019-02-18T16:17:01.259Z,11.95
2019-02-18T16:18:33.204Z,11.91
2019-02-18T16:20:05.303Z,11.84
2019-02-18T16:21:37.241Z,11.78
2019-02-18T16:23:09.168Z,11.71
2019-02-18T16:24:41.062Z,11.67
2019-02-18T16:26:13.229Z,11.63
2019-02-18T16:27:45.203Z,11.56
2019-02-18T16:29:17.184Z,11.52
2019-02-18T16:30:49.065Z,11.47
2019-02-18T16:32:21.369Z,11.41
2019-02-18T16:33:53.322Z,11.33
2019-02-18T16:35:25.215Z,11.27
2019-02-18T16:36:57.156Z,11.19
2019-02-18T16:38:29.233Z,11.13
2019-02-18T16:40:01.155Z,11.06
2019-02-18T16:41:33.076Z,11.02
2019-02-18T16:43:05.344Z,10.98
2019-02-18T16:44:37.354Z,10.97
2019-02-18T16:46:09.282Z,10.93
2019-02-18T16:47:41.818Z,10.88
2019-02-18T16:49:13.699Z,10.86
2019-02-18T16:50:45.919Z,10.82
2019-02-18T16:52:17.862Z,10.79
2019-02-18T16:53:49.834Z,10.72
2019-02-18T16:55:21.766Z,10.70
2019-02-18T16:56:54.278Z,10.65
2019-02-18T16:58:26.150Z,10.55
2019-02-18T16:59:58.095Z,10.37
2019-02-18T17:01:30.335Z,10.33
2019-02-18T17:03:02.404Z,10.23
2019-02-18T17:04:34.298Z,10.25
2019-02-18T17:06:06.553Z,10.23
2019-02-18T17:07:38.452Z,10.18
2019-02-18T17:09:10.485Z,10.13
2019-02-18T17:10:43.077Z,10.08
2019-02-18T17:12:14.967Z,10.01
2019-02-18T17:13:46.903Z,9.99
2019-02-18T17:15:19.279Z,9.92
2019-02-18T17:16:51.173Z,9.87
2019-02-18T17:18:23.076Z,9.84
2019-02-18T17:19:55.603Z,9.78
2019-02-18T17:21:27.733Z,9.71
2019-02-18T17:22:59.642Z,9.63
2019-02-18T17:24:31.843Z,9.64
2019-02-18T17:26:03.809Z,9.58
2019-02-18T17:27:35.994Z,9.53
2019-02-18T17:29:08.503Z,9.51
2019-02-18T17:30:40.497Z,9.52
2019-02-18T17:32:12.450Z,9.48
2019-02-18T17:33:45.012Z,9.36
2019-02-18T17:35:16.873Z,9.15
2019-02-18T17:36:48.782Z,9.13
2019-02-18T17:38:21.326Z,9.15
2019-02-18T17:39:53.534Z,9.11
2019-02-18T17:41:25.433Z,9.09
2019-02-18T17:42:57.721Z,9.11
2019-02-18T17:44:29.661Z,9.04
2019-02-18T17:46:01.664Z,8.97
2019-02-18T17:47:33.852Z,8.96
2019-02-18T17:49:07.838Z,8.91
2019-02-18T17:50:39.754Z,8.89
2019-02-18T17:52:11.757Z,8.88
2019-02-18T17:53:43.654Z,8.85
2019-02-18T17:55:15.539Z,8.82
2019-02-18T17:56:48.755Z,8.78
2019-02-18T17:58:21.016Z,8.74
2019-02-18T17:59:52.916Z,8.72
2019-02-18T18:01:24.775Z,8.66
2019-02-18T18:02:56.712Z,8.61
2019-02-18T18:04:28.825Z,8.57
2019-02-18T18:06:00.714Z,8.52
2019-02-18T18:07:32.622Z,8.47
2019-02-18T18:09:04.576Z,8.41
2019-02-18T18:10:36.649Z,8.35
2019-02-18T18:12:08.559Z,8.28
2019-02-18T18:13:40.665Z,8.22
2019-02-18T18:15:12.566Z,8.16
2019-02-18T18:16:44.449Z,8.10
2019-02-18T18:18:16.365Z,8.07
2019-02-18T18:19:48.574Z,8.04
2019-02-18T18:21:20.537Z,8.00
2019-02-18T18:22:52.495Z,7.97
2019-02-18T18:24:24.377Z,7.91
2019-02-18T18:25:56.376Z,7.84
2019-02-18T18:27:28.264Z,7.79
2019-02-18T18:29:00.383Z,7.75
2019-02-18T18:30:32.301Z,7.66
2019-02-18T18:32:04.189Z,7.56
2019-02-18T18:33:36.071Z,7.48
2019-02-18T18:35:08.114Z,7.44
2019-02-18T18:36:40.019Z,7.47
2019-02-18T18:38:11.913Z,7.43
2019-02-18T18:39:43.809Z,7.46
2019-02-18T18:41:15.485Z,7.54
2019-02-18T18:42:47.384Z,7.52
2019-02-18T18:44:19.553Z,7.50
2019-02-18T18:45:51.464Z,7.46
2019-02-18T18:47:22.854Z,7.40
2019-02-18T18:48:54.153Z,7.41
2019-02-18T18:50:25.569Z,7.38
2019-02-18T18:51:57.497Z,7.34
2019-02-18T18:53:30.221Z,7.31
2019-02-18T18:55:02.139Z,7.25
2019-02-18T18:56:34.282Z,7.20
2019-02-18T18:58:06.194Z,7.19
2019-02-18T18:59:37.498Z,7.07
2019-02-18T19:01:09.388Z,7.11
2019-02-18T19:02:41.420Z,7.03
2019-02-18T19:04:13.641Z,7.03
2019-02-18T19:05:47.856Z,7.00
2019-02-18T19:07:19.755Z,7.01
2019-02-18T19:08:51.983Z,6.96
2019-02-18T19:10:23.299Z,6.89
2019-02-18T19:11:55.176Z,6.83
2019-02-18T19:13:27.058Z,6.75
2019-02-18T19:14:59.181Z,6.71
2019-02-18T19:16:31.067Z,6.69
2019-02-18T19:18:02.387Z,6.66
2019-02-18T19:19:34.284Z,6.66
2019-02-18T19:21:06.336Z,6.63
2019-02-18T19:22:38.256Z,6.59
2019-02-18T19:24:10.193Z,6.55
2019-02-18T19:25:41.523Z,6.51
2019-02-18T19:27:13.084Z,6.47
2019-02-18T19:28:46.525Z,6.43
2019-02-18T19:30:17.932Z,6.37
2019-02-18T19:31:49.707Z,6.31
2019-02-18T19:33:22.133Z,6.27
2019-02-18T19:34:54.038Z,6.25
2019-02-18T19:36:26.708Z,6.25
2019-02-18T19:37:58.656Z,6.21
2019-02-18T19:39:30.667Z,6.16
2019-02-18T19:41:02.772Z,6.10
2019-02-18T19:42:34.650Z,6.03
2019-02-18T19:44:06.300Z,5.97
2019-02-18T19:45:38.676Z,5.90
2019-02-18T19:47:11.511Z,5.88
2019-02-18T19:48:43.413Z,5.91
2019-02-18T19:50:15.373Z,5.88
2019-02-18T19:51:46.942Z,5.79
2019-02-18T19:53:18.897Z,5.66
2019-02-18T19:54:50.793Z,5.58
2019-02-18T19:56:22.851Z,5.54
2019-02-18T19:57:55.275Z,5.50
2019-02-18T19:59:27.237Z,5.47
2019-02-18T20:00:59.146Z,5.43
2019-02-18T20:02:31.041Z,5.39
2019-02-18T20:04:03.359Z,5.35